sensor_id;sensor_type;location;lat;lon;timestamp;P1;durP1;ratioP1;P2;durP2;ratioP2
43919;SDS011;29578;51.946;5.874;2023-01-15T00:01:27;0.82;;;0.50;;
43919;SDS011;29578;51.946;5.874;2023-01-15T00:03:55;0.90;;;0.60;;
43919;SDS011;29578;51.946;5.874;2023-01-15T00:06:22;1.10;;;0.47;;
43919;SDS011;29578;51.946;5.874;2023-01-15T00:08:50;1.63;;;0.40;;
43919;SDS011;29578;51.946;5.874;2023-01-15T00:11:16;0.65;;;0.25;;
43919;SDS011;29578;51.946;5.874;2023-01-15T00:13:42;0.40;;;0.30;;
43919;SDS011;29578;51.946;5.874;2023-01-15T00:16:10;2.22;;;0.38;;
43919;SDS011;29578;51.946;5.874;2023-01-15T00:21:06;1.70;;;0.50;;
43919;SDS011;29578;51.946;5.874;2023-01-15T00:23:33;0.75;;;0.32;;
43919;SDS011;29578;51.946;5.874;2023-01-15T00:26:12;0.90;;;0.40;;
43919;SDS011;29578;51.946;5.874;2023-01-15T00:28:51;1.75;;;0.60;;
43919;SDS011;29578;51.946;5.874;2023-01-15T00:31:17;2.72;;;0.85;;
43919;SDS011;29578;51.946;5.874;2023-01-15T00:33:42;2.15;;;0.68;;
43919;SDS011;29578;51.946;5.874;2023-01-15T00:36:08;3.13;;;0.85;;
43919;SDS011;29578;51.946;5.874;2023-01-15T00:38:34;3.08;;;0.85;;
43919;SDS011;29578;51.946;5.874;2023-01-15T00:40:59;1.45;;;0.60;;
43919;SDS011;29578;51.946;5.874;2023-01-15T00:43:25;1.10;;;0.50;;
43919;SDS011;29578;51.946;5.874;2023-01-15T00:45:50;1.33;;;0.60;;
43919;SDS011;29578;51.946;5.874;2023-01-15T00:48:16;1.95;;;0.73;;
43919;SDS011;29578;51.946;5.874;2023-01-15T00:50:42;1.23;;;0.52;;
43919;SDS011;29578;51.946;5.874;2023-01-15T00:53:07;2.10;;;0.50;;
43919;SDS011;29578;51.946;5.874;2023-01-15T00:55:33;1.20;;;0.47;;
43919;SDS011;29578;51.946;5.874;2023-01-15T00:57:58;2.63;;;0.98;;
43919;SDS011;29578;51.946;5.874;2023-01-15T01:00:24;2.13;;;0.70;;
43919;SDS011;29578;51.946;5.874;2023-01-15T01:02:49;2.67;;;0.63;;
43919;SDS011;29578;51.946;5.874;2023-01-15T01:05:15;2.42;;;0.80;;
43919;SDS011;29578;51.946;5.874;2023-01-15T01:07:41;4.20;;;0.70;;
43919;SDS011;29578;51.946;5.874;2023-01-15T01:10:06;3.13;;;0.95;;
43919;SDS011;29578;51.946;5.874;2023-01-15T01:12:33;1.63;;;0.70;;
43919;SDS011;29578;51.946;5.874;2023-01-15T01:14:58;4.03;;;0.80;;
43919;SDS011;29578;51.946;5.874;2023-01-15T01:17:24;2.50;;;0.90;;
43919;SDS011;29578;51.946;5.874;2023-01-15T01:19:50;4.05;;;0.90;;
43919;SDS011;29578;51.946;5.874;2023-01-15T01:22:15;2.25;;;0.75;;
43919;SDS011;29578;51.946;5.874;2023-01-15T01:24:41;1.95;;;0.57;;
43919;SDS011;29578;51.946;5.874;2023-01-15T01:27:07;2.25;;;0.77;;
43919;SDS011;29578;51.946;5.874;2023-01-15T01:29:32;3.13;;;0.80;;
43919;SDS011;29578;51.946;5.874;2023-01-15T01:31:58;3.50;;;0.70;;
43919;SDS011;29578;51.946;5.874;2023-01-15T01:34:23;1.50;;;0.70;;
43919;SDS011;29578;51.946;5.874;2023-01-15T01:36:49;1.42;;;0.65;;
43919;SDS011;29578;51.946;5.874;2023-01-15T01:39:15;3.13;;;0.73;;
43919;SDS011;29578;51.946;5.874;2023-01-15T01:41:42;3.22;;;0.70;;
43919;SDS011;29578;51.946;5.874;2023-01-15T01:47:12;2.25;;;0.60;;
43919;SDS011;29578;51.946;5.874;2023-01-15T01:49:46;1.70;;;0.73;;
43919;SDS011;29578;51.946;5.874;2023-01-15T01:52:18;3.50;;;0.82;;
43919;SDS011;29578;51.946;5.874;2023-01-15T01:54:48;3.63;;;0.55;;
43919;SDS011;29578;51.946;5.874;2023-01-15T01:57:15;2.65;;;0.63;;
43919;SDS011;29578;51.946;5.874;2023-01-15T01:59:43;2.40;;;0.73;;
43919;SDS011;29578;51.946;5.874;2023-01-15T02:02:10;4.55;;;0.80;;
43919;SDS011;29578;51.946;5.874;2023-01-15T02:04:35;3.75;;;0.93;;
43919;SDS011;29578;51.946;5.874;2023-01-15T02:07:02;2.63;;;0.70;;
43919;SDS011;29578;51.946;5.874;2023-01-15T02:09:28;1.50;;;0.88;;
43919;SDS011;29578;51.946;5.874;2023-01-15T02:11:55;1.60;;;0.70;;
43919;SDS011;29578;51.946;5.874;2023-01-15T02:17:11;1.33;;;0.47;;
43919;SDS011;29578;51.946;5.874;2023-01-15T02:19:55;2.63;;;0.75;;
43919;SDS011;29578;51.946;5.874;2023-01-15T02:22:37;2.78;;;0.60;;
43919;SDS011;29578;51.946;5.874;2023-01-15T02:28:33;1.70;;;0.70;;
43919;SDS011;29578;51.946;5.874;2023-01-15T02:31:07;1.70;;;0.60;;
43919;SDS011;29578;51.946;5.874;2023-01-15T02:33:48;2.53;;;0.80;;
43919;SDS011;29578;51.946;5.874;2023-01-15T02:36:20;3.40;;;0.90;;
43919;SDS011;29578;51.946;5.874;2023-01-15T02:38:48;3.85;;;0.82;;
43919;SDS011;29578;51.946;5.874;2023-01-15T02:41:19;2.38;;;0.68;;
43919;SDS011;29578;51.946;5.874;2023-01-15T02:43:50;0.40;;;0.30;;
43919;SDS011;29578;51.946;5.874;2023-01-15T02:46:19;1.83;;;0.52;;
43919;SDS011;29578;51.946;5.874;2023-01-15T02:48:49;1.05;;;0.60;;
43919;SDS011;29578;51.946;5.874;2023-01-15T02:51:20;1.65;;;0.70;;
43919;SDS011;29578;51.946;5.874;2023-01-15T02:53:49;1.85;;;0.50;;
43919;SDS011;29578;51.946;5.874;2023-01-15T02:56:20;1.23;;;0.57;;
43919;SDS011;29578;51.946;5.874;2023-01-15T02:58:50;2.50;;;0.60;;
43919;SDS011;29578;51.946;5.874;2023-01-15T03:01:20;3.28;;;0.70;;
43919;SDS011;29578;51.946;5.874;2023-01-15T03:03:54;1.95;;;0.73;;
43919;SDS011;29578;51.946;5.874;2023-01-15T03:06:37;1.77;;;0.70;;
43919;SDS011;29578;51.946;5.874;2023-01-15T03:09:08;2.28;;;0.70;;
43919;SDS011;29578;51.946;5.874;2023-01-15T03:11:36;2.17;;;0.73;;
43919;SDS011;29578;51.946;5.874;2023-01-15T03:14:13;2.28;;;0.60;;
43919;SDS011;29578;51.946;5.874;2023-01-15T03:16:45;2.65;;;0.90;;
43919;SDS011;29578;51.946;5.874;2023-01-15T03:19:23;1.23;;;0.55;;
43919;SDS011;29578;51.946;5.874;2023-01-15T03:21:54;1.35;;;0.40;;
43919;SDS011;29578;51.946;5.874;2023-01-15T03:24:32;2.53;;;0.80;;
43919;SDS011;29578;51.946;5.874;2023-01-15T03:27:04;1.88;;;0.70;;
43919;SDS011;29578;51.946;5.874;2023-01-15T03:29:32;1.48;;;0.60;;
43919;SDS011;29578;51.946;5.874;2023-01-15T03:34:39;2.72;;;0.70;;
43919;SDS011;29578;51.946;5.874;2023-01-15T03:37:09;1.85;;;0.63;;
43919;SDS011;29578;51.946;5.874;2023-01-15T03:39:35;2.47;;;0.50;;
43919;SDS011;29578;51.946;5.874;2023-01-15T03:42:04;2.22;;;0.60;;
43919;SDS011;29578;51.946;5.874;2023-01-15T03:44:44;2.25;;;0.70;;
43919;SDS011;29578;51.946;5.874;2023-01-15T03:47:25;1.40;;;0.57;;
43919;SDS011;29578;51.946;5.874;2023-01-15T03:50:24;3.05;;;0.60;;
43919;SDS011;29578;51.946;5.874;2023-01-15T03:53:04;2.13;;;0.60;;
43919;SDS011;29578;51.946;5.874;2023-01-15T03:55:52;1.83;;;0.63;;
43919;SDS011;29578;51.946;5.874;2023-01-15T03:58:26;0.70;;;0.60;;
43919;SDS011;29578;51.946;5.874;2023-01-15T04:00:57;1.17;;;0.63;;
43919;SDS011;29578;51.946;5.874;2023-01-15T04:03:26;3.17;;;0.85;;
43919;SDS011;29578;51.946;5.874;2023-01-15T04:05:54;1.92;;;0.68;;
43919;SDS011;29578;51.946;5.874;2023-01-15T04:08:23;2.17;;;0.70;;
43919;SDS011;29578;51.946;5.874;2023-01-15T04:10:52;3.75;;;0.57;;
43919;SDS011;29578;51.946;5.874;2023-01-15T04:13:20;2.28;;;0.75;;
43919;SDS011;29578;51.946;5.874;2023-01-15T04:15:47;2.47;;;0.60;;
43919;SDS011;29578;51.946;5.874;2023-01-15T04:18:12;0.65;;;0.50;;
43919;SDS011;29578;51.946;5.874;2023-01-15T04:20:38;2.65;;;0.65;;
43919;SDS011;29578;51.946;5.874;2023-01-15T04:23:04;2.50;;;0.47;;
43919;SDS011;29578;51.946;5.874;2023-01-15T04:25:30;2.97;;;0.77;;
43919;SDS011;29578;51.946;5.874;2023-01-15T04:27:55;2.78;;;0.70;;
43919;SDS011;29578;51.946;5.874;2023-01-15T04:30:21;1.42;;;0.45;;
43919;SDS011;29578;51.946;5.874;2023-01-15T04:32:48;1.73;;;0.77;;
43919;SDS011;29578;51.946;5.874;2023-01-15T04:35:14;2.10;;;0.80;;
43919;SDS011;29578;51.946;5.874;2023-01-15T04:37:40;2.03;;;0.68;;
43919;SDS011;29578;51.946;5.874;2023-01-15T04:40:07;3.00;;;0.73;;
43919;SDS011;29578;51.946;5.874;2023-01-15T04:42:33;2.97;;;0.70;;
43919;SDS011;29578;51.946;5.874;2023-01-15T04:45:18;1.13;;;0.50;;
43919;SDS011;29578;51.946;5.874;2023-01-15T04:47:44;2.78;;;0.60;;
43919;SDS011;29578;51.946;5.874;2023-01-15T04:50:09;2.28;;;0.65;;
43919;SDS011;29578;51.946;5.874;2023-01-15T04:52:35;2.50;;;0.70;;
43919;SDS011;29578;51.946;5.874;2023-01-15T04:55:02;1.67;;;0.70;;
43919;SDS011;29578;51.946;5.874;2023-01-15T04:57:28;2.80;;;0.85;;
43919;SDS011;29578;51.946;5.874;2023-01-15T04:59:54;2.35;;;0.90;;
43919;SDS011;29578;51.946;5.874;2023-01-15T05:02:19;2.00;;;0.70;;
43919;SDS011;29578;51.946;5.874;2023-01-15T05:04:45;2.90;;;0.80;;
43919;SDS011;29578;51.946;5.874;2023-01-15T05:07:11;1.85;;;0.55;;
43919;SDS011;29578;51.946;5.874;2023-01-15T05:09:36;1.73;;;0.60;;
43919;SDS011;29578;51.946;5.874;2023-01-15T05:12:02;3.17;;;0.80;;
43919;SDS011;29578;51.946;5.874;2023-01-15T05:14:28;1.63;;;0.47;;
43919;SDS011;29578;51.946;5.874;2023-01-15T05:16:53;1.80;;;0.57;;
43919;SDS011;29578;51.946;5.874;2023-01-15T05:19:19;3.50;;;0.60;;
43919;SDS011;29578;51.946;5.874;2023-01-15T05:21:45;2.28;;;0.68;;
43919;SDS011;29578;51.946;5.874;2023-01-15T05:24:13;1.15;;;0.40;;
43919;SDS011;29578;51.946;5.874;2023-01-15T05:26:40;0.80;;;0.47;;
43919;SDS011;29578;51.946;5.874;2023-01-15T05:29:06;1.90;;;0.70;;
43919;SDS011;29578;51.946;5.874;2023-01-15T05:31:31;0.95;;;0.65;;
43919;SDS011;29578;51.946;5.874;2023-01-15T05:33:58;2.10;;;0.40;;
43919;SDS011;29578;51.946;5.874;2023-01-15T05:36:25;0.65;;;0.40;;
43919;SDS011;29578;51.946;5.874;2023-01-15T05:38:52;2.38;;;0.43;;
43919;SDS011;29578;51.946;5.874;2023-01-15T05:41:20;3.45;;;0.73;;
43919;SDS011;29578;51.946;5.874;2023-01-15T05:44:03;6.28;;;0.77;;
43919;SDS011;29578;51.946;5.874;2023-01-15T05:46:32;2.78;;;0.80;;
43919;SDS011;29578;51.946;5.874;2023-01-15T05:48:59;2.38;;;0.70;;
43919;SDS011;29578;51.946;5.874;2023-01-15T05:51:26;2.33;;;0.73;;
43919;SDS011;29578;51.946;5.874;2023-01-15T05:53:52;3.08;;;1.17;;
43919;SDS011;29578;51.946;5.874;2023-01-15T05:56:17;2.70;;;0.90;;
43919;SDS011;29578;51.946;5.874;2023-01-15T05:58:43;2.88;;;0.88;;
43919;SDS011;29578;51.946;5.874;2023-01-15T06:01:09;0.98;;;0.43;;
43919;SDS011;29578;51.946;5.874;2023-01-15T06:03:35;2.50;;;0.90;;
43919;SDS011;29578;51.946;5.874;2023-01-15T06:06:01;1.92;;;0.60;;
43919;SDS011;29578;51.946;5.874;2023-01-15T06:08:28;2.17;;;0.75;;
43919;SDS011;29578;51.946;5.874;2023-01-15T06:10:53;3.33;;;0.80;;
43919;SDS011;29578;51.946;5.874;2023-01-15T06:13:19;2.92;;;1.00;;
43919;SDS011;29578;51.946;5.874;2023-01-15T06:15:45;4.10;;;0.70;;
43919;SDS011;29578;51.946;5.874;2023-01-15T06:18:10;1.25;;;0.63;;
43919;SDS011;29578;51.946;5.874;2023-01-15T06:20:37;1.65;;;0.63;;
43919;SDS011;29578;51.946;5.874;2023-01-15T06:23:03;2.88;;;0.85;;
43919;SDS011;29578;51.946;5.874;2023-01-15T06:25:31;3.72;;;0.77;;
43919;SDS011;29578;51.946;5.874;2023-01-15T06:28:02;3.08;;;0.70;;
43919;SDS011;29578;51.946;5.874;2023-01-15T06:30:29;2.28;;;0.77;;
43919;SDS011;29578;51.946;5.874;2023-01-15T06:32:55;2.22;;;0.80;;
43919;SDS011;29578;51.946;5.874;2023-01-15T06:35:20;2.28;;;0.60;;
43919;SDS011;29578;51.946;5.874;2023-01-15T06:37:47;4.15;;;0.93;;
43919;SDS011;29578;51.946;5.874;2023-01-15T06:40:14;3.65;;;0.70;;
43919;SDS011;29578;51.946;5.874;2023-01-15T06:42:40;3.53;;;0.65;;
43919;SDS011;29578;51.946;5.874;2023-01-15T06:45:17;3.53;;;0.70;;
43919;SDS011;29578;51.946;5.874;2023-01-15T06:47:57;3.58;;;0.90;;
43919;SDS011;29578;51.946;5.874;2023-01-15T06:50:23;1.98;;;0.57;;
43919;SDS011;29578;51.946;5.874;2023-01-15T06:52:49;2.75;;;0.70;;
43919;SDS011;29578;51.946;5.874;2023-01-15T06:55:15;2.58;;;0.65;;
43919;SDS011;29578;51.946;5.874;2023-01-15T06:57:42;4.35;;;0.90;;
43919;SDS011;29578;51.946;5.874;2023-01-15T07:00:09;2.92;;;0.70;;
43919;SDS011;29578;51.946;5.874;2023-01-15T07:02:36;2.90;;;0.60;;
43919;SDS011;29578;51.946;5.874;2023-01-15T07:05:02;4.15;;;1.02;;
43919;SDS011;29578;51.946;5.874;2023-01-15T07:07:29;4.20;;;0.75;;
43919;SDS011;29578;51.946;5.874;2023-01-15T07:09:55;2.75;;;0.80;;
43919;SDS011;29578;51.946;5.874;2023-01-15T07:12:20;1.88;;;0.70;;
43919;SDS011;29578;51.946;5.874;2023-01-15T07:14:46;4.95;;;0.82;;
43919;SDS011;29578;51.946;5.874;2023-01-15T07:17:12;2.78;;;0.60;;
43919;SDS011;29578;51.946;5.874;2023-01-15T07:19:38;3.28;;;0.75;;
43919;SDS011;29578;51.946;5.874;2023-01-15T07:22:05;2.00;;;0.90;;
43919;SDS011;29578;51.946;5.874;2023-01-15T07:24:31;0.75;;;0.50;;
43919;SDS011;29578;51.946;5.874;2023-01-15T07:26:57;2.17;;;0.40;;
43919;SDS011;29578;51.946;5.874;2023-01-15T07:29:23;3.38;;;1.00;;
43919;SDS011;29578;51.946;5.874;2023-01-15T07:31:49;2.58;;;0.90;;
43919;SDS011;29578;51.946;5.874;2023-01-15T07:34:15;1.67;;;0.45;;
43919;SDS011;29578;51.946;5.874;2023-01-15T07:36:41;2.63;;;0.75;;
43919;SDS011;29578;51.946;5.874;2023-01-15T07:39:07;3.05;;;0.60;;
43919;SDS011;29578;51.946;5.874;2023-01-15T07:41:34;1.73;;;0.60;;
43919;SDS011;29578;51.946;5.874;2023-01-15T07:46:56;2.88;;;0.65;;
43919;SDS011;29578;51.946;5.874;2023-01-15T07:49:36;2.53;;;0.88;;
43919;SDS011;29578;51.946;5.874;2023-01-15T07:52:17;2.05;;;0.60;;
43919;SDS011;29578;51.946;5.874;2023-01-15T07:54:45;3.33;;;1.00;;
43919;SDS011;29578;51.946;5.874;2023-01-15T07:57:11;6.05;;;1.13;;
43919;SDS011;29578;51.946;5.874;2023-01-15T07:59:39;2.50;;;0.80;;
43919;SDS011;29578;51.946;5.874;2023-01-15T08:02:05;3.90;;;1.15;;
43919;SDS011;29578;51.946;5.874;2023-01-15T08:04:31;4.93;;;0.95;;
43919;SDS011;29578;51.946;5.874;2023-01-15T08:06:58;4.28;;;1.10;;
43919;SDS011;29578;51.946;5.874;2023-01-15T08:09:25;2.55;;;1.00;;
43919;SDS011;29578;51.946;5.874;2023-01-15T08:11:51;1.60;;;0.65;;
43919;SDS011;29578;51.946;5.874;2023-01-15T08:14:27;2.05;;;0.50;;
43919;SDS011;29578;51.946;5.874;2023-01-15T08:17:07;3.22;;;0.95;;
43919;SDS011;29578;51.946;5.874;2023-01-15T08:19:33;2.75;;;0.88;;
43919;SDS011;29578;51.946;5.874;2023-01-15T08:21:58;0.98;;;0.50;;
43919;SDS011;29578;51.946;5.874;2023-01-15T08:24:25;3.10;;;0.88;;
43919;SDS011;29578;51.946;5.874;2023-01-15T08:26:52;2.72;;;0.85;;
43919;SDS011;29578;51.946;5.874;2023-01-15T08:29:18;1.77;;;0.70;;
43919;SDS011;29578;51.946;5.874;2023-01-15T08:31:44;2.13;;;0.65;;
43919;SDS011;29578;51.946;5.874;2023-01-15T08:34:10;1.05;;;0.55;;
43919;SDS011;29578;51.946;5.874;2023-01-15T08:36:35;2.78;;;0.57;;
43919;SDS011;29578;51.946;5.874;2023-01-15T08:39:01;1.77;;;0.55;;
43919;SDS011;29578;51.946;5.874;2023-01-15T08:41:28;2.13;;;1.20;;
43919;SDS011;29578;51.946;5.874;2023-01-15T08:43:54;2.13;;;0.82;;
43919;SDS011;29578;51.946;5.874;2023-01-15T08:46:19;2.22;;;0.77;;
43919;SDS011;29578;51.946;5.874;2023-01-15T08:48:45;3.25;;;0.85;;
43919;SDS011;29578;51.946;5.874;2023-01-15T08:51:12;3.22;;;0.75;;
43919;SDS011;29578;51.946;5.874;2023-01-15T08:53:38;4.90;;;1.10;;
43919;SDS011;29578;51.946;5.874;2023-01-15T08:56:10;3.05;;;1.13;;
43919;SDS011;29578;51.946;5.874;2023-01-15T08:58:37;2.80;;;0.68;;
43919;SDS011;29578;51.946;5.874;2023-01-15T09:01:05;7.32;;;1.38;;
43919;SDS011;29578;51.946;5.874;2023-01-15T09:03:32;2.40;;;1.02;;
43919;SDS011;29578;51.946;5.874;2023-01-15T09:05:58;4.47;;;0.80;;
43919;SDS011;29578;51.946;5.874;2023-01-15T09:08:25;2.53;;;0.90;;
43919;SDS011;29578;51.946;5.874;2023-01-15T09:10:55;5.65;;;0.88;;
43919;SDS011;29578;51.946;5.874;2023-01-15T09:13:22;3.05;;;1.27;;
43919;SDS011;29578;51.946;5.874;2023-01-15T09:15:49;3.35;;;1.00;;
43919;SDS011;29578;51.946;5.874;2023-01-15T09:18:15;3.38;;;0.80;;
43919;SDS011;29578;51.946;5.874;2023-01-15T09:20:43;2.17;;;0.93;;
43919;SDS011;29578;51.946;5.874;2023-01-15T09:23:09;2.00;;;0.80;;
43919;SDS011;29578;51.946;5.874;2023-01-15T09:25:35;2.67;;;0.80;;
43919;SDS011;29578;51.946;5.874;2023-01-15T09:28:01;3.35;;;1.05;;
43919;SDS011;29578;51.946;5.874;2023-01-15T09:30:26;2.05;;;0.90;;
43919;SDS011;29578;51.946;5.874;2023-01-15T09:32:53;6.13;;;0.85;;
43919;SDS011;29578;51.946;5.874;2023-01-15T09:35:19;4.30;;;1.13;;
43919;SDS011;29578;51.946;5.874;2023-01-15T09:37:53;2.95;;;0.82;;
43919;SDS011;29578;51.946;5.874;2023-01-15T09:40:28;4.13;;;1.05;;
43919;SDS011;29578;51.946;5.874;2023-01-15T09:46:16;3.08;;;0.88;;
43919;SDS011;29578;51.946;5.874;2023-01-15T09:48:50;2.67;;;0.93;;
43919;SDS011;29578;51.946;5.874;2023-01-15T09:51:41;3.78;;;1.10;;
43919;SDS011;29578;51.946;5.874;2023-01-15T09:54:37;2.42;;;0.82;;
43919;SDS011;29578;51.946;5.874;2023-01-15T09:57:18;2.35;;;0.90;;
43919;SDS011;29578;51.946;5.874;2023-01-15T09:59:47;5.15;;;1.08;;
43919;SDS011;29578;51.946;5.874;2023-01-15T10:02:31;2.58;;;0.82;;
43919;SDS011;29578;51.946;5.874;2023-01-15T10:05:20;4.25;;;0.82;;
43919;SDS011;29578;51.946;5.874;2023-01-15T10:07:57;3.83;;;0.93;;
43919;SDS011;29578;51.946;5.874;2023-01-15T10:10:29;3.78;;;0.90;;
43919;SDS011;29578;51.946;5.874;2023-01-15T10:13:01;3.97;;;1.13;;
43919;SDS011;29578;51.946;5.874;2023-01-15T10:15:35;4.70;;;1.40;;
43919;SDS011;29578;51.946;5.874;2023-01-15T10:18:05;6.68;;;1.35;;
43919;SDS011;29578;51.946;5.874;2023-01-15T10:23:34;4.10;;;1.02;;
43919;SDS011;29578;51.946;5.874;2023-01-15T10:26:11;5.75;;;1.23;;
43919;SDS011;29578;51.946;5.874;2023-01-15T10:28:50;4.47;;;1.30;;
43919;SDS011;29578;51.946;5.874;2023-01-15T10:31:23;2.80;;;1.02;;
43919;SDS011;29578;51.946;5.874;2023-01-15T10:34:04;6.57;;;1.42;;
43919;SDS011;29578;51.946;5.874;2023-01-15T10:36:53;4.53;;;1.52;;
43919;SDS011;29578;51.946;5.874;2023-01-15T10:42:27;3.45;;;1.17;;
43919;SDS011;29578;51.946;5.874;2023-01-15T10:45:18;4.35;;;1.02;;
43919;SDS011;29578;51.946;5.874;2023-01-15T10:47:49;4.03;;;1.13;;
43919;SDS011;29578;51.946;5.874;2023-01-15T10:50:23;4.03;;;1.08;;
43919;SDS011;29578;51.946;5.874;2023-01-15T10:52:57;3.08;;;0.90;;
43919;SDS011;29578;51.946;5.874;2023-01-15T10:55:33;3.75;;;1.13;;
43919;SDS011;29578;51.946;5.874;2023-01-15T11:00:49;3.78;;;1.52;;
43919;SDS011;29578;51.946;5.874;2023-01-15T11:03:19;4.28;;;0.98;;
43919;SDS011;29578;51.946;5.874;2023-01-15T11:05:50;1.73;;;0.80;;
43919;SDS011;29578;51.946;5.874;2023-01-15T11:08:20;4.72;;;1.10;;
43919;SDS011;29578;51.946;5.874;2023-01-15T11:10:52;3.33;;;1.08;;
43919;SDS011;29578;51.946;5.874;2023-01-15T11:13:21;5.10;;;1.35;;
43919;SDS011;29578;51.946;5.874;2023-01-15T11:15:59;5.72;;;1.42;;
43919;SDS011;29578;51.946;5.874;2023-01-15T11:18:40;4.13;;;1.33;;
43919;SDS011;29578;51.946;5.874;2023-01-15T11:21:20;4.97;;;1.30;;
43919;SDS011;29578;51.946;5.874;2023-01-15T11:23:47;3.13;;;0.93;;
43919;SDS011;29578;51.946;5.874;2023-01-15T11:26:19;5.35;;;1.25;;
43919;SDS011;29578;51.946;5.874;2023-01-15T11:28:47;6.00;;;1.70;;
43919;SDS011;29578;51.946;5.874;2023-01-15T11:31:13;5.53;;;1.58;;
43919;SDS011;29578;51.946;5.874;2023-01-15T11:36:24;5.93;;;1.23;;
43919;SDS011;29578;51.946;5.874;2023-01-15T11:38:52;6.80;;;1.70;;
43919;SDS011;29578;51.946;5.874;2023-01-15T11:41:22;3.80;;;1.13;;
43919;SDS011;29578;51.946;5.874;2023-01-15T11:44:11;4.38;;;1.40;;
43919;SDS011;29578;51.946;5.874;2023-01-15T11:46:53;2.70;;;1.10;;
43919;SDS011;29578;51.946;5.874;2023-01-15T11:49:31;3.50;;;1.08;;
43919;SDS011;29578;51.946;5.874;2023-01-15T11:52:12;2.42;;;1.02;;
43919;SDS011;29578;51.946;5.874;2023-01-15T11:54:42;5.10;;;1.00;;
43919;SDS011;29578;51.946;5.874;2023-01-15T11:57:11;5.18;;;1.38;;
43919;SDS011;29578;51.946;5.874;2023-01-15T11:59:49;4.38;;;1.15;;
43919;SDS011;29578;51.946;5.874;2023-01-15T12:02:16;2.85;;;1.02;;
43919;SDS011;29578;51.946;5.874;2023-01-15T12:05:02;4.43;;;1.00;;
43919;SDS011;29578;51.946;5.874;2023-01-15T12:07:29;6.10;;;1.38;;
43919;SDS011;29578;51.946;5.874;2023-01-15T12:12:49;3.03;;;1.00;;
43919;SDS011;29578;51.946;5.874;2023-01-15T12:15:32;3.80;;;1.08;;
43919;SDS011;29578;51.946;5.874;2023-01-15T12:24:08;2.95;;;1.00;;
43919;SDS011;29578;51.946;5.874;2023-01-15T12:29:56;3.92;;;1.25;;
43919;SDS011;29578;51.946;5.874;2023-01-15T12:32:29;5.72;;;1.23;;
43919;SDS011;29578;51.946;5.874;2023-01-15T12:35:04;4.72;;;1.30;;
43919;SDS011;29578;51.946;5.874;2023-01-15T12:37:42;5.25;;;1.17;;
43919;SDS011;29578;51.946;5.874;2023-01-15T12:40:18;3.45;;;0.95;;
43919;SDS011;29578;51.946;5.874;2023-01-15T12:42:49;4.25;;;0.90;;
43919;SDS011;29578;51.946;5.874;2023-01-15T12:45:37;4.10;;;1.00;;
43919;SDS011;29578;51.946;5.874;2023-01-15T12:48:17;2.85;;;1.20;;
43919;SDS011;29578;51.946;5.874;2023-01-15T12:50:49;3.42;;;1.13;;
43919;SDS011;29578;51.946;5.874;2023-01-15T12:53:21;2.75;;;1.10;;
43919;SDS011;29578;51.946;5.874;2023-01-15T13:02:01;2.78;;;1.10;;
43919;SDS011;29578;51.946;5.874;2023-01-15T13:07:26;2.10;;;1.05;;
43919;SDS011;29578;51.946;5.874;2023-01-15T13:10:10;3.67;;;1.17;;
43919;SDS011;29578;51.946;5.874;2023-01-15T13:12:41;2.10;;;1.17;;
43919;SDS011;29578;51.946;5.874;2023-01-15T13:15:10;2.30;;;1.08;;
43919;SDS011;29578;51.946;5.874;2023-01-15T13:17:50;3.42;;;1.15;;
43919;SDS011;29578;51.946;5.874;2023-01-15T13:20:43;3.65;;;1.33;;
43919;SDS011;29578;51.946;5.874;2023-01-15T13:26:24;2.53;;;1.15;;
43919;SDS011;29578;51.946;5.874;2023-01-15T13:32:11;1.70;;;0.82;;
43919;SDS011;29578;51.946;5.874;2023-01-15T13:34:45;3.45;;;1.13;;
43919;SDS011;29578;51.946;5.874;2023-01-15T13:37:23;4.55;;;1.15;;
43919;SDS011;29578;51.946;5.874;2023-01-15T13:39:55;3.63;;;1.05;;
43919;SDS011;29578;51.946;5.874;2023-01-15T13:42:24;5.82;;;1.35;;
43919;SDS011;29578;51.946;5.874;2023-01-15T13:48:01;3.58;;;1.30;;
43919;SDS011;29578;51.946;5.874;2023-01-15T13:50:35;3.50;;;0.80;;
43919;SDS011;29578;51.946;5.874;2023-01-15T13:53:13;1.83;;;0.98;;
43919;SDS011;29578;51.946;5.874;2023-01-15T13:58:34;3.88;;;1.33;;
43919;SDS011;29578;51.946;5.874;2023-01-15T14:01:05;4.32;;;1.30;;
43919;SDS011;29578;51.946;5.874;2023-01-15T14:04:04;3.80;;;1.40;;
43919;SDS011;29578;51.946;5.874;2023-01-15T14:06:44;4.47;;;1.40;;
43919;SDS011;29578;51.946;5.874;2023-01-15T14:09:12;3.80;;;1.30;;
43919;SDS011;29578;51.946;5.874;2023-01-15T14:20:49;4.68;;;1.15;;
43919;SDS011;29578;51.946;5.874;2023-01-15T14:23:31;1.73;;;0.90;;
43919;SDS011;29578;51.946;5.874;2023-01-15T14:35:02;2.80;;;1.10;;
43919;SDS011;29578;51.946;5.874;2023-01-15T14:37:39;3.42;;;1.13;;
43919;SDS011;29578;51.946;5.874;2023-01-15T14:40:18;3.33;;;1.02;;
43919;SDS011;29578;51.946;5.874;2023-01-15T14:42:46;3.95;;;1.20;;
43919;SDS011;29578;51.946;5.874;2023-01-15T14:45:34;3.00;;;1.30;;
43919;SDS011;29578;51.946;5.874;2023-01-15T14:48:09;3.88;;;1.30;;
43919;SDS011;29578;51.946;5.874;2023-01-15T14:50:43;4.22;;;1.00;;
43919;SDS011;29578;51.946;5.874;2023-01-15T14:53:26;2.85;;;1.10;;
43919;SDS011;29578;51.946;5.874;2023-01-15T14:55:58;5.35;;;1.30;;
43919;SDS011;29578;51.946;5.874;2023-01-15T15:06:56;3.05;;;1.10;;
43919;SDS011;29578;51.946;5.874;2023-01-15T15:09:58;3.60;;;0.95;;
43919;SDS011;29578;51.946;5.874;2023-01-15T15:12:32;2.90;;;1.08;;
43919;SDS011;29578;51.946;5.874;2023-01-15T15:15:11;2.47;;;0.93;;
43919;SDS011;29578;51.946;5.874;2023-01-15T15:18:01;2.95;;;1.05;;
43919;SDS011;29578;51.946;5.874;2023-01-15T15:21:05;3.75;;;1.25;;
43919;SDS011;29578;51.946;5.874;2023-01-15T15:23:43;2.58;;;1.00;;
43919;SDS011;29578;51.946;5.874;2023-01-15T15:26:27;2.55;;;1.00;;
43919;SDS011;29578;51.946;5.874;2023-01-15T15:28:58;4.82;;;1.38;;
43919;SDS011;29578;51.946;5.874;2023-01-15T15:31:26;2.33;;;1.00;;
43919;SDS011;29578;51.946;5.874;2023-01-15T15:33:55;4.78;;;1.15;;
43919;SDS011;29578;51.946;5.874;2023-01-15T15:36:23;1.35;;;0.82;;
43919;SDS011;29578;51.946;5.874;2023-01-15T15:38:52;4.38;;;1.00;;
43919;SDS011;29578;51.946;5.874;2023-01-15T15:41:38;1.52;;;1.00;;
43919;SDS011;29578;51.946;5.874;2023-01-15T15:44:35;3.22;;;1.30;;
43919;SDS011;29578;51.946;5.874;2023-01-15T15:47:39;2.60;;;1.00;;
43919;SDS011;29578;51.946;5.874;2023-01-15T15:50:20;2.25;;;0.90;;
43919;SDS011;29578;51.946;5.874;2023-01-15T15:52:49;3.42;;;1.10;;
43919;SDS011;29578;51.946;5.874;2023-01-15T15:55:15;1.88;;;0.60;;
43919;SDS011;29578;51.946;5.874;2023-01-15T15:57:43;1.05;;;0.80;;
43919;SDS011;29578;51.946;5.874;2023-01-15T16:00:16;2.20;;;0.90;;
43919;SDS011;29578;51.946;5.874;2023-01-15T16:02:44;3.85;;;1.20;;
43919;SDS011;29578;51.946;5.874;2023-01-15T16:08:05;2.42;;;1.10;;
43919;SDS011;29578;51.946;5.874;2023-01-15T16:10:33;2.15;;;1.10;;
43919;SDS011;29578;51.946;5.874;2023-01-15T16:13:00;0.63;;;0.63;;
43919;SDS011;29578;51.946;5.874;2023-01-15T16:15:32;3.45;;;0.90;;
43919;SDS011;29578;51.946;5.874;2023-01-15T16:18:02;1.60;;;0.90;;
43919;SDS011;29578;51.946;5.874;2023-01-15T16:20:29;1.15;;;0.60;;
43919;SDS011;29578;51.946;5.874;2023-01-15T16:22:57;1.48;;;0.80;;
43919;SDS011;29578;51.946;5.874;2023-01-15T16:25:26;1.75;;;0.80;;
43919;SDS011;29578;51.946;5.874;2023-01-15T16:27:56;2.17;;;1.00;;
43919;SDS011;29578;51.946;5.874;2023-01-15T16:30:23;2.15;;;0.80;;
43919;SDS011;29578;51.946;5.874;2023-01-15T16:32:49;1.83;;;0.88;;
43919;SDS011;29578;51.946;5.874;2023-01-15T16:35:18;4.78;;;1.02;;
43919;SDS011;29578;51.946;5.874;2023-01-15T16:37:48;1.40;;;0.70;;
43919;SDS011;29578;51.946;5.874;2023-01-15T16:40:33;4.45;;;1.00;;
43919;SDS011;29578;51.946;5.874;2023-01-15T16:43:04;2.58;;;1.00;;
43919;SDS011;29578;51.946;5.874;2023-01-15T16:45:32;3.03;;;0.95;;